sensor_id;sensor_type;location;lat;lon;timestamp;pressure;altitude;pressure_sealevel;temperature;humidity
46347;BME280;32057;47.830;19.046;2023-07-31T00:01:17;99885.47;;;16.26;100.00
46347;BME280;32057;47.830;19.046;2023-07-31T00:03:42;99885.53;;;16.18;100.00
46347;BME280;32057;47.830;19.046;2023-07-31T00:06:08;99882.03;;;16.19;100.00
46347;BME280;32057;47.830;19.046;2023-07-31T00:08:33;99881.22;;;16.14;100.00
46347;BME280;32057;47.830;19.046;2023-07-31T00:10:59;99880.22;;;16.24;100.00
46347;BME280;32057;47.830;19.046;2023-07-31T00:13:24;99872.38;;;16.23;100.00
46347;BME280;32057;47.830;19.046;2023-07-31T00:15:50;99878.53;;;16.17;100.00
46347;BME280;32057;47.830;19.046;2023-07-31T00:18:15;99879.38;;;16.21;100.00
46347;BME280;32057;47.830;19.046;2023-07-31T00:20:41;99878.53;;;16.17;100.00
46347;BME280;32057;47.830;19.046;2023-07-31T00:23:06;99886.41;;;16.17;100.00
46347;BME280;32057;47.830;19.046;2023-07-31T00:25:31;99880.31;;;16.17;100.00
46347;BME280;32057;47.830;19.046;2023-07-31T00:27:57;99889.22;;;16.00;100.00
46347;BME280;32057;47.830;19.046;2023-07-31T00:30:22;99887.44;;;16.04;100.00
46347;BME280;32057;47.830;19.046;2023-07-31T00:32:47;99894.47;;;15.97;100.00
46347;BME280;32057;47.830;19.046;2023-07-31T00:35:13;99904.09;;;15.97;100.00
46347;BME280;32057;47.830;19.046;2023-07-31T00:37:38;99895.38;;;15.96;100.00
46347;BME280;32057;47.830;19.046;2023-07-31T00:40:04;99902.34;;;16.00;100.00
46347;BME280;32057;47.830;19.046;2023-07-31T00:42:30;99899.66;;;16.06;100.00
46347;BME280;32057;47.830;19.046;2023-07-31T00:44:55;99893.50;;;16.07;100.00
46347;BME280;32057;47.830;19.046;2023-07-31T00:47:21;99894.41;;;16.06;100.00
46347;BME280;32057;47.830;19.046;2023-07-31T00:49:46;99898.75;;;16.09;100.00
46347;BME280;32057;47.830;19.046;2023-07-31T00:52:13;99899.66;;;16.08;100.00
46347;BME280;32057;47.830;19.046;2023-07-31T00:54:38;99904.84;;;16.16;100.00
46347;BME280;32057;47.830;19.046;2023-07-31T00:57:04;99902.16;;;16.22;100.00
46347;BME280;32057;47.830;19.046;2023-07-31T00:59:29;99904.72;;;16.28;100.00
46347;BME280;32057;47.830;19.046;2023-07-31T01:01:55;99887.19;;;16.30;100.00
46347;BME280;32057;47.830;19.046;2023-07-31T01:04:21;99894.16;;;16.31;100.00
46347;BME280;32057;47.830;19.046;2023-07-31T01:07:11;99890.69;;;16.29;100.00
46347;BME280;32057;47.830;19.046;2023-07-31T01:09:45;99888.03;;;16.33;100.00
46347;BME280;32057;47.830;19.046;2023-07-31T01:12:15;99881.84;;;16.38;100.00
46347;BME280;32057;47.830;19.046;2023-07-31T01:14:51;99876.53;;;16.42;100.00
46347;BME280;32057;47.830;19.046;2023-07-31T01:17:16;99875.69;;;16.42;100.00
46347;BME280;32057;47.830;19.046;2023-07-31T01:19:42;99881.81;;;16.41;100.00
46347;BME280;32057;47.830;19.046;2023-07-31T01:27:29;99894.09;;;16.37;100.00
46347;BME280;32057;47.830;19.046;2023-07-31T01:30:16;99893.22;;;16.40;100.00
46347;BME280;32057;47.830;19.046;2023-07-31T01:32:46;99893.16;;;16.41;100.00
46347;BME280;32057;47.830;19.046;2023-07-31T01:35:12;99889.72;;;16.38;100.00
46347;BME280;32057;47.830;19.046;2023-07-31T01:37:38;99894.09;;;16.37;100.00
46347;BME280;32057;47.830;19.046;2023-07-31T01:40:05;99891.50;;;16.36;100.00
46347;BME280;32057;47.830;19.046;2023-07-31T01:42:31;99890.59;;;16.38;100.00
46347;BME280;32057;47.830;19.046;2023-07-31T01:44:56;99892.31;;;16.42;100.00
46347;BME280;32057;47.830;19.046;2023-07-31T01:47:22;99880.03;;;16.44;100.00
46347;BME280;32057;47.830;19.046;2023-07-31T01:49:48;99886.13;;;16.48;100.00
46347;BME280;32057;47.830;19.046;2023-07-31T01:52:14;99888.75;;;16.46;100.00
46347;BME280;32057;47.830;19.046;2023-07-31T01:54:39;99889.59;;;16.51;100.00
46347;BME280;32057;47.830;19.046;2023-07-31T01:57:05;99884.34;;;16.51;100.00
46347;BME280;32057;47.830;19.046;2023-07-31T01:59:30;99886.06;;;16.52;100.00
46347;BME280;32057;47.830;19.046;2023-07-31T02:01:55;99878.09;;;16.59;100.00
46347;BME280;32057;47.830;19.046;2023-07-31T02:04:21;99880.66;;;16.63;100.00
46347;BME280;32057;47.830;19.046;2023-07-31T02:06:46;99880.66;;;16.65;100.00
46347;BME280;32057;47.830;19.046;2023-07-31T02:09:12;99875.41;;;16.65;100.00
46347;BME280;32057;47.830;19.046;2023-07-31T02:11:37;99874.50;;;16.67;100.00
46347;BME280;32057;47.830;19.046;2023-07-31T02:14:02;99878.88;;;16.68;100.00
46347;BME280;32057;47.830;19.046;2023-07-31T02:16:28;99878.84;;;16.71;100.00
46347;BME280;32057;47.830;19.046;2023-07-31T02:18:53;99879.72;;;16.72;100.00
46347;BME280;32057;47.830;19.046;2023-07-31T02:21:19;99894.56;;;16.75;100.00
46347;BME280;32057;47.830;19.046;2023-07-31T02:23:44;99884.03;;;16.78;100.00
46347;BME280;32057;47.830;19.046;2023-07-31T02:26:10;99905.91;;;16.78;100.00
46347;BME280;32057;47.830;19.046;2023-07-31T02:28:35;99904.13;;;16.80;100.00
46347;BME280;32057;47.830;19.046;2023-07-31T02:31:00;99903.28;;;16.78;100.00
46347;BME280;32057;47.830;19.046;2023-07-31T02:33:26;99899.81;;;16.73;100.00
46347;BME280;32057;47.830;19.046;2023-07-31T02:35:51;99894.50;;;16.84;100.00
46347;BME280;32057;47.830;19.046;2023-07-31T02:38:17;99891.81;;;16.85;100.00
46347;BME280;32057;47.830;19.046;2023-07-31T02:40:42;99892.75;;;16.81;100.00
46347;BME280;32057;47.830;19.046;2023-07-31T02:43:08;99895.38;;;16.81;100.00
46347;BME280;32057;47.830;19.046;2023-07-31T02:45:33;99894.50;;;16.79;100.00
46347;BME280;32057;47.830;19.046;2023-07-31T02:47:59;99894.53;;;16.78;100.00
46347;BME280;32057;47.830;19.046;2023-07-31T02:50:25;99893.69;;;16.76;100.00
46347;BME280;32057;47.830;19.046;2023-07-31T02:52:50;99894.56;;;16.73;100.00
46347;BME280;32057;47.830;19.046;2023-07-31T02:55:15;99897.25;;;16.70;100.00
46347;BME280;32057;47.830;19.046;2023-07-31T02:57:41;99895.50;;;16.69;100.00
46347;BME280;32057;47.830;19.046;2023-07-31T03:00:07;99900.75;;;16.67;100.00
46347;BME280;32057;47.830;19.046;2023-07-31T03:02:32;99893.84;;;16.62;100.00
46347;BME280;32057;47.830;19.046;2023-07-31T03:04:58;99893.84;;;16.62;100.00
46347;BME280;32057;47.830;19.046;2023-07-31T03:07:23;99899.13;;;16.59;100.00
46347;BME280;32057;47.830;19.046;2023-07-31T03:09:49;99895.63;;;16.60;100.00
46347;BME280;32057;47.830;19.046;2023-07-31T03:12:14;99906.16;;;16.57;100.00
46347;BME280;32057;47.830;19.046;2023-07-31T03:14:40;99907.19;;;16.42;100.00
46347;BME280;32057;47.830;19.046;2023-07-31T03:17:05;99899.34;;;16.37;100.00
46347;BME280;32057;47.830;19.046;2023-07-31T03:19:31;99915.16;;;16.31;100.00
46347;BME280;32057;47.830;19.046;2023-07-31T03:21:57;99907.25;;;16.36;100.00
46347;BME280;32057;47.830;19.046;2023-07-31T03:24:23;99905.50;;;16.33;100.00
46347;BME280;32057;47.830;19.046;2023-07-31T03:26:48;99912.53;;;16.32;100.00
46347;BME280;32057;47.830;19.046;2023-07-31T03:29:14;99913.44;;;16.30;100.00
46347;BME280;32057;47.830;19.046;2023-07-31T03:31:39;99915.22;;;16.25;100.00
46347;BME280;32057;47.830;19.046;2023-07-31T03:34:04;99918.75;;;16.21;100.00
46347;BME280;32057;47.830;19.046;2023-07-31T03:36:30;99916.09;;;16.25;100.00
46347;BME280;32057;47.830;19.046;2023-07-31T03:38:55;99918.75;;;16.24;100.00
46347;BME280;32057;47.830;19.046;2023-07-31T03:41:21;99916.94;;;16.29;100.00
46347;BME280;32057;47.830;19.046;2023-07-31T03:43:50;99929.13;;;16.36;100.00
46347;BME280;32057;47.830;19.046;2023-07-31T03:46:17;99922.13;;;16.35;100.00
46347;BME280;32057;47.830;19.046;2023-07-31T03:48:42;99922.97;;;16.40;100.00
46347;BME280;32057;47.830;19.046;2023-07-31T03:51:08;99922.94;;;16.42;100.00
46347;BME280;32057;47.830;19.046;2023-07-31T03:53:33;99928.22;;;16.42;100.00
46347;BME280;32057;47.830;19.046;2023-07-31T03:55:58;99929.00;;;16.45;100.00
46347;BME280;32057;47.830;19.046;2023-07-31T03:58:24;99933.34;;;16.49;100.00
46347;BME280;32057;47.830;19.046;2023-07-31T04:00:49;99939.44;;;16.55;100.00
46347;BME280;32057;47.830;19.046;2023-07-31T04:03:14;99936.75;;;16.59;100.00
46347;BME280;32057;47.830;19.046;2023-07-31T04:05:40;99936.75;;;16.62;100.00
46347;BME280;32057;47.830;19.046;2023-07-31T04:08:05;99947.16;;;16.70;100.00
46347;BME280;32057;47.830;19.046;2023-07-31T04:10:31;99935.69;;;16.79;100.00
46347;BME280;32057;47.830;19.046;2023-07-31T04:12:59;99927.72;;;16.88;100.00
46347;BME280;32057;47.830;19.046;2023-07-31T04:15:24;99931.16;;;16.95;100.00
46347;BME280;32057;47.830;19.046;2023-07-31T04:17:49;99922.31;;;16.99;100.00
46347;BME280;32057;47.830;19.046;2023-07-31T04:20:15;99920.53;;;17.04;100.00
46347;BME280;32057;47.830;19.046;2023-07-31T04:22:40;99913.41;;;17.10;100.00
46347;BME280;32057;47.830;19.046;2023-07-31T04:25:06;99914.28;;;17.12;100.00
46347;BME280;32057;47.830;19.046;2023-07-31T04:27:31;99923.00;;;17.16;100.00
46347;BME280;32057;47.830;19.046;2023-07-31T04:29:57;99914.16;;;17.22;100.00
46347;BME280;32057;47.830;19.046;2023-07-31T04:32:22;99911.47;;;17.25;100.00
46347;BME280;32057;47.830;19.046;2023-07-31T04:34:47;99909.69;;;17.27;100.00
46347;BME280;32057;47.830;19.046;2023-07-31T04:37:13;99918.47;;;17.27;100.00
46347;BME280;32057;47.830;19.046;2023-07-31T04:39:39;99922.81;;;17.28;100.00
46347;BME280;32057;47.830;19.046;2023-07-31T04:42:04;99919.34;;;17.26;100.00
46347;BME280;32057;47.830;19.046;2023-07-31T04:44:30;99922.84;;;17.25;100.00
46347;BME280;32057;47.830;19.046;2023-07-31T04:46:55;99919.38;;;17.23;100.00
46347;BME280;32057;47.830;19.046;2023-07-31T04:49:21;99920.31;;;17.19;100.00
46347;BME280;32057;47.830;19.046;2023-07-31T04:51:47;99919.44;;;17.20;100.00
46347;BME280;32057;47.830;19.046;2023-07-31T04:54:12;99922.03;;;17.22;100.00
46347;BME280;32057;47.830;19.046;2023-07-31T04:56:40;99918.59;;;17.18;100.00
46347;BME280;32057;47.830;19.046;2023-07-31T04:59:06;99909.75;;;17.24;100.00
46347;BME280;32057;47.830;19.046;2023-07-31T05:01:31;99923.69;;;17.29;100.00
46347;BME280;32057;47.830;19.046;2023-07-31T05:03:57;99932.41;;;17.31;100.00
46347;BME280;32057;47.830;19.046;2023-07-31T05:06:22;99927.13;;;17.34;100.00
46347;BME280;32057;47.830;19.046;2023-07-31T05:08:48;99924.50;;;17.32;100.00
46347;BME280;32057;47.830;19.046;2023-07-31T05:11:13;99932.34;;;17.37;100.00
46347;BME280;32057;47.830;19.046;2023-07-31T05:13:38;99925.34;;;17.38;100.00
46347;BME280;32057;47.830;19.046;2023-07-31T05:16:04;99927.97;;;17.38;100.00
46347;BME280;32057;47.830;19.046;2023-07-31T05:18:29;99929.56;;;17.48;100.00
46347;BME280;32057;47.830;19.046;2023-07-31T05:20:55;99930.34;;;17.55;100.00
46347;BME280;32057;47.830;19.046;2023-07-31T05:23:20;99927.63;;;17.59;100.00
46347;BME280;32057;47.830;19.046;2023-07-31T05:25:45;99931.19;;;17.57;100.00
46347;BME280;32057;47.830;19.046;2023-07-31T05:28:12;99935.53;;;17.59;100.00
46347;BME280;32057;47.830;19.046;2023-07-31T05:30:37;99944.25;;;17.61;100.00
46347;BME280;32057;47.830;19.046;2023-07-31T05:33:03;99944.25;;;17.61;100.00
46347;BME280;32057;47.830;19.046;2023-07-31T05:35:28;99941.56;;;17.67;100.00
46347;BME280;32057;47.830;19.046;2023-07-31T05:37:53;99950.22;;;17.76;100.00
46347;BME280;32057;47.830;19.046;2023-07-31T05:40:19;99944.88;;;17.83;100.00
46347;BME280;32057;47.830;19.046;2023-07-31T05:42:44;99950.00;;;17.91;100.00
46347;BME280;32057;47.830;19.046;2023-07-31T05:45:10;99954.25;;;18.00;100.00
46347;BME280;32057;47.830;19.046;2023-07-31T05:47:35;99950.59;;;18.08;100.00
46347;BME280;32057;47.830;19.046;2023-07-31T05:50:01;99952.28;;;18.13;100.00
46347;BME280;32057;47.830;19.046;2023-07-31T05:52:26;99949.84;;;18.00;100.00
46347;BME280;32057;47.830;19.046;2023-07-31T05:54:54;99953.47;;;17.93;100.00
46347;BME280;32057;47.830;19.046;2023-07-31T05:57:19;99959.75;;;17.86;100.00
46347;BME280;32057;47.830;19.046;2023-07-31T05:59:45;99949.28;;;17.80;100.00
46347;BME280;32057;47.830;19.046;2023-07-31T06:02:10;99954.56;;;17.78;100.00
46347;BME280;32057;47.830;19.046;2023-07-31T06:04:36;99959.81;;;17.80;100.00
46347;BME280;32057;47.830;19.046;2023-07-31T06:07:01;99957.97;;;17.85;100.00
46347;BME280;32057;47.830;19.046;2023-07-31T06:09:28;99962.22;;;17.95;100.00
46347;BME280;32057;47.830;19.046;2023-07-31T06:11:53;99967.47;;;17.95;100.00
46347;BME280;32057;47.830;19.046;2023-07-31T06:14:18;99972.56;;;18.07;100.00
46347;BME280;32057;47.830;19.046;2023-07-31T06:16:44;99976.56;;;18.30;100.00
46347;BME280;32057;47.830;19.046;2023-07-31T06:19:10;99973.47;;;18.58;100.00
46347;BME280;32057;47.830;19.046;2023-07-31T06:21:35;99981.84;;;18.78;100.00
46347;BME280;32057;47.830;19.046;2023-07-31T06:24:03;99977.53;;;18.76;100.00
46347;BME280;32057;47.830;19.046;2023-07-31T06:26:29;99981.66;;;18.90;100.00
46347;BME280;32057;47.830;19.046;2023-07-31T06:28:54;99974.31;;;19.06;100.00
46347;BME280;32057;47.830;19.046;2023-07-31T06:31:19;99977.63;;;19.16;100.00
46347;BME280;32057;47.830;19.046;2023-07-31T06:33:48;99981.50;;;19.42;100.00
46347;BME280;32057;47.830;19.046;2023-07-31T06:36:14;99974.25;;;19.52;100.00
46347;BME280;32057;47.830;19.046;2023-07-31T06:38:39;99969.50;;;19.67;100.00
46347;BME280;32057;47.830;19.046;2023-07-31T06:41:05;99972.13;;;19.67;100.00
46347;BME280;32057;47.830;19.046;2023-07-31T06:43:30;99970.38;;;19.66;100.00
46347;BME280;32057;47.830;19.046;2023-07-31T06:45:55;99967.91;;;19.59;100.00
46347;BME280;32057;47.830;19.046;2023-07-31T06:48:21;99971.16;;;19.73;100.00
46347;BME280;32057;47.830;19.046;2023-07-31T06:50:46;99982.50;;;19.77;100.00
46347;BME280;32057;47.830;19.046;2023-07-31T06:53:12;99983.19;;;19.85;100.00
46347;BME280;32057;47.830;19.046;2023-07-31T06:55:37;99982.16;;;19.92;100.00
46347;BME280;32057;47.830;19.046;2023-07-31T06:58:02;99986.41;;;19.98;100.00
46347;BME280;32057;47.830;19.046;2023-07-31T07:00:28;99989.34;;;19.85;100.00
46347;BME280;32057;47.830;19.046;2023-07-31T07:02:54;99990.34;;;19.80;100.00
46347;BME280;32057;47.830;19.046;2023-07-31T07:05:19;99993.63;;;19.91;100.00
46347;BME280;32057;47.830;19.046;2023-07-31T07:07:45;99989.66;;;19.70;100.00
46347;BME280;32057;47.830;19.046;2023-07-31T07:10:10;99990.66;;;19.64;100.00
46347;BME280;32057;47.830;19.046;2023-07-31T07:12:36;99997.50;;;19.75;100.00
46347;BME280;32057;47.830;19.046;2023-07-31T07:15:02;99992.53;;;20.00;100.00
46347;BME280;32057;47.830;19.046;2023-07-31T07:17:28;99988.97;;;20.01;100.00
46347;BME280;32057;47.830;19.046;2023-07-31T07:19:56;100000.44;;;20.00;100.00
46347;BME280;32057;47.830;19.046;2023-07-31T07:22:22;99998.63;;;20.03;100.00
46347;BME280;32057;47.830;19.046;2023-07-31T07:24:52;99993.88;;;19.79;100.00
46347;BME280;32057;47.830;19.046;2023-07-31T07:27:18;99986.94;;;19.75;100.00
46347;BME280;32057;47.830;19.046;2023-07-31T07:29:43;99992.06;;;19.81;100.00
46347;BME280;32057;47.830;19.046;2023-07-31T07:32:09;99992.16;;;19.78;100.00
46347;BME280;32057;47.830;19.046;2023-07-31T07:34:34;99991.00;;;19.89;100.00
46347;BME280;32057;47.830;19.046;2023-07-31T07:37:00;99988.47;;;19.85;100.00
46347;BME280;32057;47.830;19.046;2023-07-31T07:39:25;99987.53;;;19.87;100.00
46347;BME280;32057;47.830;19.046;2023-07-31T07:41:50;99986.59;;;19.90;97.96
46347;BME280;32057;47.830;19.046;2023-07-31T07:44:16;99984.56;;;20.01;100.00
46347;BME280;32057;47.830;19.046;2023-07-31T07:46:41;99989.41;;;20.20;100.00
46347;BME280;32057;47.830;19.046;2023-07-31T07:49:07;99990.22;;;20.22;98.70
46347;BME280;32057;47.830;19.046;2023-07-31T07:51:32;99981.34;;;20.24;98.20
46347;BME280;32057;47.830;19.046;2023-07-31T07:53:59;99982.59;;;20.45;99.40
46347;BME280;32057;47.830;19.046;2023-07-31T07:56:25;99972.56;;;20.60;96.67
46347;BME280;32057;47.830;19.046;2023-07-31T07:58:51;99979.50;;;20.64;94.54
46347;BME280;32057;47.830;19.046;2023-07-31T08:01:17;99964.00;;;20.48;91.25
46347;BME280;32057;47.830;19.046;2023-07-31T08:03:43;99963.69;;;20.61;93.61
46347;BME280;32057;47.830;19.046;2023-07-31T08:06:09;99963.41;;;20.73;90.42
46347;BME280;32057;47.830;19.046;2023-07-31T08:08:35;99956.63;;;20.94;91.72
46347;BME280;32057;47.830;19.046;2023-07-31T08:11:01;99949.13;;;21.10;90.35
46347;BME280;32057;47.830;19.046;2023-07-31T08:13:26;99961.38;;;21.13;89.24
46347;BME280;32057;47.830;19.046;2023-07-31T08:15:52;99957.25;;;21.04;88.89
46347;BME280;32057;47.830;19.046;2023-07-31T08:18:17;99960.16;;;21.24;84.48
46347;BME280;32057;47.830;19.046;2023-07-31T08:20:42;99966.09;;;21.03;87.50
46347;BME280;32057;47.830;19.046;2023-07-31T08:23:09;99958.81;;;21.11;87.37
46347;BME280;32057;47.830;19.046;2023-07-31T08:25:35;99967.63;;;21.10;88.79
46347;BME280;32057;47.830;19.046;2023-07-31T08:28:01;99966.25;;;20.97;88.49
46347;BME280;32057;47.830;19.046;2023-07-31T08:30:27;99969.09;;;21.20;87.78
46347;BME280;32057;47.830;19.046;2023-07-31T08:32:52;99950.03;;;21.09;85.88
46347;BME280;32057;47.830;19.046;2023-07-31T08:35:17;99951.31;;;21.25;86.81
46347;BME280;32057;47.830;19.046;2023-07-31T08:37:43;99947.28;;;21.12;85.38
46347;BME280;32057;47.830;19.046;2023-07-31T08:40:09;99953.81;;;21.30;87.10
46347;BME280;32057;47.830;19.046;2023-07-31T08:42:43;99955.44;;;21.36;87.95
46347;BME280;32057;47.830;19.046;2023-07-31T08:45:09;99947.63;;;21.31;86.17
46347;BME280;32057;47.830;19.046;2023-07-31T08:47:34;99957.16;;;21.37;85.95
46347;BME280;32057;47.830;19.046;2023-07-31T08:50:00;99960.75;;;21.34;84.84
46347;BME280;32057;47.830;19.046;2023-07-31T08:52:27;99955.63;;;21.29;87.28
46347;BME280;32057;47.830;19.046;2023-07-31T08:54:52;99956.31;;;21.35;83.86
46347;BME280;32057;47.830;19.046;2023-07-31T08:57:17;99953.44;;;21.44;85.24
46347;BME280;32057;47.830;19.046;2023-07-31T08:59:43;99944.84;;;21.65;88.42
46347;BME280;32057;47.830;19.046;2023-07-31T09:02:09;99952.00;;;21.90;87.05
46347;BME280;32057;47.830;19.046;2023-07-31T09:04:36;99950.88;;;21.97;84.14
46347;BME280;32057;47.830;19.046;2023-07-31T09:07:03;99952.13;;;21.87;82.88
46347;BME280;32057;47.830;19.046;2023-07-31T09:09:30;99944.03;;;21.90;84.02
46347;BME280;32057;47.830;19.046;2023-07-31T09:11:57;99935.97;;;21.95;81.03
46347;BME280;32057;47.830;19.046;2023-07-31T09:14:25;99938.91;;;22.12;81.90
46347;BME280;32057;47.830;19.046;2023-07-31T09:16:55;99929.13;;;22.14;82.13
46347;BME280;32057;47.830;19.046;2023-07-31T09:19:35;99939.19;;;22.31;82.15
46347;BME280;32057;47.830;19.046;2023-07-31T09:22:06;99938.53;;;22.24;79.34
46347;BME280;32057;47.830;19.046;2023-07-31T09:24:33;99937.56;;;22.27;79.81
46347;BME280;32057;47.830;19.046;2023-07-31T09:27:00;99937.34;;;22.33;79.39
46347;BME280;32057;47.830;19.046;2023-07-31T09:29:27;99932.66;;;22.41;76.00
46347;BME280;32057;47.830;19.046;2023-07-31T09:31:54;99931.84;;;22.39;76.95
46347;BME280;32057;47.830;19.046;2023-07-31T09:34:20;99932.91;;;22.34;74.59
46347;BME280;32057;47.830;19.046;2023-07-31T09:36:53;99943.94;;;22.46;77.88
46347;BME280;32057;47.830;19.046;2023-07-31T09:39:19;99943.59;;;22.31;75.22
46347;BME280;32057;47.830;19.046;2023-07-31T09:41:54;99927.50;;;22.10;76.97
46347;BME280;32057;47.830;19.046;2023-07-31T09:44:20;99931.25;;;22.31;76.98
46347;BME280;32057;47.830;19.046;2023-07-31T09:46:46;99935.47;;;22.37;79.31
46347;BME280;32057;47.830;19.046;2023-07-31T09:49:13;99936.03;;;22.18;77.82
46347;BME280;32057;47.830;19.046;2023-07-31T09:51:41;99929.78;;;22.21;79.43
46347;BME280;32057;47.830;19.046;2023-07-31T09:54:11;99930.63;;;22.23;80.28
46347;BME280;32057;47.830;19.046;2023-07-31T09:56:45;99932.03;;;22.06;77.02
46347;BME280;32057;47.830;19.046;2023-07-31T09:59:16;99939.69;;;22.16;79.05
46347;BME280;32057;47.830;19.046;2023-07-31T10:01:42;99941.41;;;22.17;77.96
46347;BME280;32057;47.830;19.046;2023-07-31T10:04:09;99926.75;;;22.33;79.48
46347;BME280;32057;47.830;19.046;2023-07-31T10:06:36;99931.25;;;22.31;79.41
46347;BME280;32057;47.830;19.046;2023-07-31T10:09:04;99930.91;;;22.40;80.08
46347;BME280;32057;47.830;19.046;2023-07-31T10:11:34;99926.00;;;22.55;78.48
46347;BME280;32057;47.830;19.046;2023-07-31T10:14:03;99915.91;;;22.64;78.54
46347;BME280;32057;47.830;19.046;2023-07-31T10:16:30;99918.41;;;22.69;76.60
46347;BME280;32057;47.830;19.046;2023-07-31T10:18:56;99929.28;;;22.61;76.23
46347;BME280;32057;47.830;19.046;2023-07-31T10:21:22;99925.44;;;22.70;78.36
46347;BME280;32057;47.830;19.046;2023-07-31T10:23:49;99913.72;;;23.01;77.54
46347;BME280;32057;47.830;19.046;2023-07-31T10:26:17;99904.41;;;22.89;74.78
46347;BME280;32057;47.830;19.046;2023-07-31T10:28:46;99913.00;;;22.96;75.49
46347;BME280;32057;47.830;19.046;2023-07-31T10:31:12;99907.22;;;23.10;74.79
46347;BME280;32057;47.830;19.046;2023-07-31T10:33:39;99901.09;;;23.31;72.75
46347;BME280;32057;47.830;19.046;2023-07-31T10:36:17;99898.94;;;23.41;69.11
46347;BME280;32057;47.830;19.046;2023-07-31T10:38:42;99909.09;;;23.30;69.41
46347;BME280;32057;47.830;19.046;2023-07-31T10:41:11;99906.34;;;23.33;65.65
46347;BME280;32057;47.830;19.046;2023-07-31T10:43:37;99902.38;;;23.43;67.20
46347;BME280;32057;47.830;19.046;2023-07-31T10:46:07;99903.25;;;23.65;66.66
46347;BME280;32057;47.830;19.046;2023-07-31T10:48:38;99899.25;;;23.77;64.24
46347;BME280;32057;47.830;19.046;2023-07-31T10:51:08;99898.25;;;23.58;62.31
46347;BME280;32057;47.830;19.046;2023-07-31T10:53:35;99897.19;;;23.62;64.79
46347;BME280;32057;47.830;19.046;2023-07-31T10:56:09;99893.91;;;23.79;62.54
46347;BME280;32057;47.830;19.046;2023-07-31T10:58:36;99903.13;;;23.69;61.81
46347;BME280;32057;47.830;19.046;2023-07-31T11:01:04;99888.63;;;23.55;62.12
46347;BME280;32057;47.830;19.046;2023-07-31T11:03:46;99886.84;;;23.76;63.69
46347;BME280;32057;47.830;19.046;2023-07-31T11:06:13;99894.66;;;24.03;62.89
46347;BME280;32057;47.830;19.046;2023-07-31T11:08:47;99891.69;;;24.11;59.03
46347;BME280;32057;47.830;19.046;2023-07-31T11:11:14;99881.91;;;24.11;58.50
46347;BME280;32057;47.830;19.046;2023-07-31T11:16:12;99889.13;;;24.08;58.46
46347;BME280;32057;47.830;19.046;2023-07-31T11:18:42;99891.31;;;23.98;56.90
46347;BME280;32057;47.830;19.046;2023-07-31T11:21:12;99877.59;;;24.09;58.68
46347;BME280;32057;47.830;19.046;2023-07-31T11:23:38;99884.34;;;24.36;59.77
46347;BME280;32057;47.830;19.046;2023-07-31T11:26:05;99886.91;;;24.19;56.63
46347;BME280;32057;47.830;19.046;2023-07-31T11:28:32;99871.84;;;24.18;57.59
46347;BME280;32057;47.830;19.046;2023-07-31T11:30:59;99875.25;;;24.21;57.78
46347;BME280;32057;47.830;19.046;2023-07-31T11:33:25;99867.34;;;24.61;60.76
46347;BME280;32057;47.830;19.046;2023-07-31T11:35:50;99856.03;;;24.76;57.61
46347;BME280;32057;47.830;19.046;2023-07-31T11:38:26;99870.13;;;24.58;55.14
46347;BME280;32057;47.830;19.046;2023-07-31T11:41:09;99866.75;;;24.34;55.10
46347;BME280;32057;47.830;19.046;2023-07-31T11:43:35;99859.97;;;24.47;54.63
46347;BME280;32057;47.830;19.046;2023-07-31T11:46:02;99865.09;;;24.52;55.54
46347;BME280;32057;47.830;19.046;2023-07-31T11:48:36;99849.47;;;24.64;56.37
46347;BME280;32057;47.830;19.046;2023-07-31T11:51:03;99859.94;;;24.68;56.58
46347;BME280;32057;47.830;19.046;2023-07-31T11:55:59;99850.97;;;24.89;57.82
46347;BME280;32057;47.830;19.046;2023-07-31T11:58:26;99845.31;;;24.97;56.65
46347;BME280;32057;47.830;19.046;2023-07-31T12:00:52;99851.34;;;25.00;55.00
46347;BME280;32057;47.830;19.046;2023-07-31T12:03:18;99847.97;;;24.97;58.48
46347;BME280;32057;47.830;19.046;2023-07-31T12:05:47;99855.31;;;25.11;55.98
46347;BME280;32057;47.830;19.046;2023-07-31T12:08:12;99855.31;;;25.11;54.60
46347;BME280;32057;47.830;19.046;2023-07-31T12:10:38;99856.38;;;24.88;55.77
46347;BME280;32057;47.830;19.046;2023-07-31T12:13:10;99847.47;;;24.89;54.28
46347;BME280;32057;47.830;19.046;2023-07-31T12:15:43;99847.00;;;24.98;53.35
46347;BME280;32057;47.830;19.046;2023-07-31T12:18:13;99847.22;;;24.74;51.82
46347;BME280;32057;47.830;19.046;2023-07-31T12:20:53;99836.03;;;24.87;52.27
46347;BME280;32057;47.830;19.046;2023-07-31T12:23:24;99830.03;;;24.81;51.32
46347;BME280;32057;47.830;19.046;2023-07-31T12:26:13;99831.03;;;24.98;53.37
46347;BME280;32057;47.830;19.046;2023-07-31T12:28:44;99827.47;;;24.99;51.29
46347;BME280;32057;47.830;19.046;2023-07-31T12:31:11;99823.00;;;25.18;51.51
46347;BME280;32057;47.830;19.046;2023-07-31T12:33:39;99822.09;;;25.18;51.60
46347;BME280;32057;47.830;19.046;2023-07-31T12:36:08;99816.94;;;25.34;52.11
46347;BME280;32057;47.830;19.046;2023-07-31T12:38:34;99809.00;;;25.32;50.94
46347;BME280;32057;47.830;19.046;2023-07-31T12:40:59;99809.75;;;25.53;51.18
46347;BME280;32057;47.830;19.046;2023-07-31T12:43:25;99815.88;;;25.55;51.65
46347;BME280;32057;47.830;19.046;2023-07-31T12:45:50;99810.72;;;25.52;52.63
46347;BME280;32057;47.830;19.046;2023-07-31T12:48:16;99805.72;;;25.81;53.08
46347;BME280;32057;47.830;19.046;2023-07-31T12:50:41;99803.50;;;25.72;50.80